createdAt,value
2023-01-10T00:01:53.086Z,73.24
2023-01-10T00:04:21.410Z,73.41
2023-01-10T00:06:51.775Z,73.41
2023-01-10T00:09:20.067Z,73.25
2023-01-10T00:12:05.416Z,73.40
2023-01-10T00:14:35.205Z,73.35
2023-01-10T00:17:04.021Z,73.22
2023-01-10T00:19:32.785Z,73.25
2023-01-10T00:22:13.750Z,73.46
2023-01-10T00:24:43.032Z,73.24
2023-01-10T00:27:20.669Z,73.33
2023-01-10T00:29:51.116Z,72.96
2023-01-10T00:32:20.304Z,73.42
2023-01-10T00:34:48.809Z,73.49
2023-01-10T00:37:18.481Z,73.02
2023-01-10T00:39:46.673Z,73.36
2023-01-10T00:42:32.250Z,73.36
2023-01-10T00:45:00.512Z,73.36
2023-01-10T00:47:28.820Z,73.61
2023-01-10T00:49:57.182Z,73.48
2023-01-10T00:52:26.905Z,73.40
2023-01-10T00:54:55.116Z,73.33
2023-01-10T00:57:23.368Z,73.35
2023-01-10T00:59:51.684Z,73.48
2023-01-10T01:02:20.238Z,73.69
2023-01-10T01:04:48.561Z,73.96
2023-01-10T01:07:16.823Z,73.61
2023-01-10T01:10:00.376Z,73.72
2023-01-10T01:12:28.668Z,73.80
2023-01-10T01:14:56.883Z,73.82
2023-01-10T01:17:25.084Z,73.96
2023-01-10T01:19:53.295Z,74.06
2023-01-10T01:22:21.742Z,73.94
2023-01-10T01:24:51.363Z,74.06
2023-01-10T01:27:20.964Z,73.99
2023-01-10T01:29:49.255Z,74.03
2023-01-10T01:32:17.575Z,74.07
2023-01-10T01:34:45.965Z,74.02
2023-01-10T01:37:14.204Z,74.16
2023-01-10T01:39:42.433Z,73.93
2023-01-10T01:42:23.407Z,74.14
2023-01-10T01:45:32.174Z,74.06
2023-01-10T01:48:06.558Z,73.99
2023-01-10T01:50:39.718Z,73.79
2023-01-10T01:53:12.462Z,73.83
2023-01-10T01:55:41.804Z,73.95
2023-01-10T01:58:15.574Z,73.85
2023-01-10T02:00:43.951Z,73.86
2023-01-10T02:03:15.431Z,74.04
2023-01-10T02:05:45.046Z,74.09
2023-01-10T02:08:14.739Z,74.06
2023-01-10T02:10:48.978Z,74.08
2023-01-10T02:13:22.857Z,74.23
2023-01-10T02:15:51.179Z,74.34
2023-01-10T02:18:20.775Z,74.39
2023-01-10T02:21:10.373Z,74.38
2023-01-10T02:24:17.374Z,74.51
2023-01-10T02:27:26.610Z,74.50
2023-01-10T02:30:34.968Z,74.60
2023-01-10T02:33:13.569Z,74.65
2023-01-10T02:36:01.655Z,74.71
2023-01-10T02:38:40.417Z,74.63
2023-01-10T02:41:17.298Z,74.51
2023-01-10T02:43:51.482Z,74.70
2023-01-10T02:46:25.478Z,74.73
2023-01-10T02:48:56.599Z,74.80
2023-01-10T02:51:27.302Z,74.80
2023-01-10T02:54:00.632Z,74.82
2023-01-10T02:56:48.030Z,74.87
2023-01-10T02:59:58.241Z,75.07
2023-01-10T03:02:43.183Z,75.16
2023-01-10T03:05:22.400Z,75.21
2023-01-10T03:07:58.818Z,74.91
2023-01-10T03:10:31.290Z,74.98
2023-01-10T03:13:03.729Z,75.02
2023-01-10T03:15:35.474Z,75.31
2023-01-10T03:18:07.049Z,75.19
2023-01-10T03:20:40.717Z,75.28
2023-01-10T03:23:10.095Z,75.41
2023-01-10T03:25:40.307Z,75.41
2023-01-10T03:28:11.542Z,75.34
2023-01-10T03:30:46.128Z,75.48
2023-01-10T03:33:17.081Z,75.49
2023-01-10T03:35:58.899Z,75.56
2023-01-10T03:38:32.710Z,75.43
2023-01-10T03:41:06.870Z,75.17
2023-01-10T03:44:02.923Z,75.31
2023-01-10T03:46:37.305Z,75.33
2023-01-10T03:49:07.840Z,75.32
2023-01-10T03:51:40.312Z,75.12
2023-01-10T03:54:09.010Z,75.14
2023-01-10T03:56:46.168Z,75.21
2023-01-10T03:59:14.647Z,75.48
2023-01-10T04:01:43.079Z,75.54
2023-01-10T04:04:11.631Z,75.58
2023-01-10T04:06:41.823Z,75.44
2023-01-10T04:09:10.471Z,75.49
2023-01-10T04:11:38.953Z,75.35
2023-01-10T04:14:07.368Z,75.38
2023-01-10T04:16:35.682Z,75.31
2023-01-10T04:19:03.996Z,75.29
2023-01-10T04:21:32.295Z,75.36
2023-01-10T04:24:01.899Z,75.44
2023-01-10T04:26:30.124Z,75.51
2023-01-10T04:28:58.424Z,75.45
2023-01-10T04:31:27.138Z,75.41
2023-01-10T04:33:55.398Z,75.60
2023-01-10T04:36:23.681Z,75.67
2023-01-10T04:38:51.963Z,75.80
2023-01-10T04:41:21.560Z,75.58
2023-01-10T04:43:50.230Z,75.64
2023-01-10T04:46:18.749Z,75.64
2023-01-10T04:48:47.134Z,75.43
2023-01-10T04:51:15.535Z,75.54
2023-01-10T04:53:43.896Z,75.72
2023-01-10T04:56:17.873Z,75.89
2023-01-10T04:58:47.922Z,75.97
2023-01-10T05:01:18.722Z,76.08
2023-01-10T05:03:48.706Z,76.20
2023-01-10T05:06:17.236Z,76.15
2023-01-10T05:08:46.004Z,76.10
2023-01-10T05:11:14.395Z,76.21
2023-01-10T05:13:43.022Z,76.30
2023-01-10T05:16:12.705Z,76.37
2023-01-10T05:18:41.024Z,76.41
2023-01-10T05:21:11.610Z,76.41
2023-01-10T05:23:40.981Z,76.43
2023-01-10T05:26:11.424Z,76.49
2023-01-10T05:28:40.275Z,76.43
2023-01-10T05:31:08.934Z,76.39
2023-01-10T05:33:38.772Z,76.42
2023-01-10T05:36:08.428Z,76.41
2023-01-10T05:38:36.694Z,76.40
2023-01-10T05:41:05.158Z,76.28
2023-01-10T05:43:33.623Z,76.33
2023-01-10T05:46:02.002Z,76.37
2023-01-10T05:48:30.311Z,76.35
2023-01-10T05:50:59.905Z,76.28
2023-01-10T05:53:28.242Z,76.38
2023-01-10T05:55:57.497Z,76.34
2023-01-10T05:58:26.877Z,76.46
2023-01-10T06:00:56.992Z,76.44
2023-01-10T06:03:26.877Z,76.47
2023-01-10T06:05:55.673Z,76.56
2023-01-10T06:08:26.855Z,76.54
2023-01-10T06:10:55.713Z,76.55
2023-01-10T06:13:24.493Z,76.50
2023-01-10T06:15:53.441Z,76.24
2023-01-10T06:18:21.725Z,76.30
2023-01-10T06:20:50.057Z,76.53
2023-01-10T06:23:18.372Z,76.54
2023-01-10T06:25:47.938Z,76.47
2023-01-10T06:28:16.251Z,76.50
2023-01-10T06:30:44.718Z,76.53
2023-01-10T06:33:13.629Z,76.66
2023-01-10T06:35:42.100Z,76.73
2023-01-10T06:38:10.287Z,76.82
2023-01-10T06:40:38.515Z,76.96
2023-01-10T06:43:08.131Z,76.98
2023-01-10T06:45:36.680Z,77.11
2023-01-10T06:48:05.886Z,77.24
2023-01-10T06:50:34.128Z,77.29
2023-01-10T06:53:04.373Z,77.30
2023-01-10T06:55:33.098Z,77.21
2023-01-10T06:58:03.009Z,77.24
2023-01-10T07:00:33.614Z,77.24
2023-01-10T07:03:03.014Z,77.17
2023-01-10T07:05:31.440Z,77.24
2023-01-10T07:08:01.379Z,77.19
2023-01-10T07:10:30.103Z,77.18
2023-01-10T07:12:58.625Z,77.26
2023-01-10T07:15:28.245Z,77.24
2023-01-10T07:17:59.117Z,77.15
2023-01-10T07:20:28.036Z,77.16
2023-01-10T07:22:57.448Z,77.16
2023-01-10T07:25:27.275Z,77.34
2023-01-10T07:27:56.373Z,77.33
2023-01-10T07:30:26.045Z,77.36
2023-01-10T07:32:55.865Z,77.37
2023-01-10T07:35:26.625Z,77.27
2023-01-10T07:37:54.917Z,77.11
2023-01-10T07:40:23.143Z,77.06
2023-01-10T07:42:51.412Z,77.00
2023-01-10T07:45:19.852Z,76.87
2023-01-10T07:47:48.132Z,76.82
2023-01-10T07:50:18.135Z,76.76
2023-01-10T07:52:47.840Z,76.75
2023-01-10T07:55:17.734Z,76.63
2023-01-10T07:57:46.312Z,76.54
2023-01-10T08:00:19.242Z,76.59
2023-01-10T08:02:48.096Z,76.51
2023-01-10T08:05:16.504Z,76.34
2023-01-10T08:07:44.687Z,76.26
2023-01-10T08:10:14.352Z,76.21
2023-01-10T08:12:42.673Z,76.12
2023-01-10T08:15:11.657Z,75.97
2023-01-10T08:17:39.873Z,75.95
2023-01-10T08:20:09.429Z,75.83
2023-01-10T08:22:37.725Z,75.70
2023-01-10T08:25:07.887Z,75.69
2023-01-10T08:27:37.806Z,75.60
2023-01-10T08:30:10.844Z,75.54
2023-01-10T08:32:39.935Z,75.52
2023-01-10T08:35:11.214Z,75.41
2023-01-10T08:37:39.988Z,75.42
2023-01-10T08:40:11.353Z,75.28
2023-01-10T08:42:41.488Z,75.12
2023-01-10T08:45:10.749Z,75.14
2023-01-10T08:47:38.963Z,75.06
2023-01-10T08:50:08.176Z,75.02
2023-01-10T08:52:36.496Z,74.91
2023-01-10T08:55:05.300Z,74.89
2023-01-10T08:57:33.532Z,74.91
2023-01-10T09:00:06.392Z,74.94
2023-01-10T09:02:35.134Z,74.76
2023-01-10T09:05:04.879Z,74.86
2023-01-10T09:07:33.382Z,74.82
2023-01-10T09:10:01.726Z,74.67
2023-01-10T09:12:47.225Z,74.75
2023-01-10T09:15:17.008Z,74.54
2023-01-10T09:17:45.313Z,74.62
2023-01-10T09:20:13.708Z,74.59
2023-01-10T09:22:41.988Z,74.59
2023-01-10T09:25:11.339Z,74.36
2023-01-10T09:27:39.668Z,74.38
2023-01-10T09:30:09.188Z,74.34
2023-01-10T09:32:39.001Z,74.43
2023-01-10T09:35:07.618Z,74.22
2023-01-10T09:37:37.976Z,74.12
2023-01-10T09:40:08.551Z,74.19
2023-01-10T09:42:54.016Z,74.18
2023-01-10T09:45:32.539Z,74.26
2023-01-10T09:48:06.213Z,74.08
2023-01-10T09:50:43.294Z,74.06
2023-01-10T09:53:14.133Z,73.96
2023-01-10T09:55:43.794Z,74.08
2023-01-10T09:58:16.002Z,73.91
2023-01-10T10:00:48.152Z,74.05
2023-01-10T10:03:29.257Z,74.15
2023-01-10T10:06:10.811Z,73.83
2023-01-10T10:08:40.153Z,74.12
2023-01-10T10:11:21.272Z,73.83
2023-01-10T10:13:56.002Z,73.78
2023-01-10T10:16:32.734Z,73.84
2023-01-10T10:19:11.071Z,73.82
2023-01-10T10:21:50.382Z,73.74
2023-01-10T10:24:39.664Z,73.57
2023-01-10T10:27:15.950Z,73.77
2023-01-10T10:30:13.119Z,73.69
2023-01-10T10:33:13.696Z,73.87
2023-01-10T10:35:50.874Z,73.64
2023-01-10T10:38:24.841Z,73.84
2023-01-10T10:40:54.919Z,73.92
2023-01-10T10:43:28.340Z,73.50
2023-01-10T10:46:01.532Z,73.56
2023-01-10T10:48:32.535Z,73.85
2023-01-10T10:51:08.518Z,73.70
2023-01-10T10:53:37.162Z,73.88
2023-01-10T10:56:08.517Z,73.70
2023-01-10T10:58:46.283Z,73.92
2023-01-10T11:01:15.776Z,73.77
2023-01-10T11:03:49.444Z,73.55
2023-01-10T11:06:20.453Z,73.61
2023-01-10T11:08:52.091Z,73.74
2023-01-10T11:11:24.375Z,73.66
2023-01-10T11:13:56.502Z,73.77
2023-01-10T11:16:31.212Z,73.75
2023-01-10T11:19:26.976Z,73.63
2023-01-10T11:22:01.005Z,73.77
2023-01-10T11:24:32.335Z,73.40
2023-01-10T11:27:03.772Z,73.77
2023-01-10T11:29:39.917Z,73.45
2023-01-10T11:32:15.224Z,73.61
2023-01-10T11:34:50.309Z,73.74
2023-01-10T11:37:22.566Z,73.67
2023-01-10T11:39:50.937Z,73.87
2023-01-10T11:42:30.510Z,74.00
2023-01-10T11:45:22.820Z,73.72
2023-01-10T11:47:54.667Z,73.93
2023-01-10T11:50:25.639Z,73.62
2023-01-10T11:52:58.006Z,74.01
2023-01-10T11:55:31.508Z,73.67
2023-01-10T11:58:03.763Z,73.75
2023-01-10T12:00:38.947Z,73.96
2023-01-10T12:03:24.850Z,73.96
2023-01-10T12:05:55.359Z,73.29
2023-01-10T12:08:32.604Z,73.55
2023-01-10T12:11:08.062Z,73.76
2023-01-10T12:13:50.609Z,73.67
2023-01-10T12:16:22.530Z,73.76
2023-01-10T12:18:54.511Z,73.15
2023-01-10T12:21:31.417Z,73.37
2023-01-10T12:24:06.417Z,73.46
2023-01-10T12:26:35.932Z,73.88
2023-01-10T12:29:11.831Z,73.49
2023-01-10T12:31:41.858Z,73.94
2023-01-10T12:34:16.841Z,73.81
2023-01-10T12:36:55.174Z,73.82
2023-01-10T12:39:30.398Z,74.32
2023-01-10T12:42:29.524Z,74.32
2023-01-10T12:45:04.193Z,74.70
2023-01-10T12:47:39.525Z,74.51
2023-01-10T12:50:14.566Z,74.70
2023-01-10T12:52:48.508Z,74.80
2023-01-10T12:55:19.435Z,74.67
2023-01-10T12:57:51.888Z,74.79
2023-01-10T13:00:25.396Z,74.91
2023-01-10T13:02:56.367Z,75.19
2023-01-10T13:05:27.629Z,74.70
2023-01-10T13:08:02.176Z,75.07
2023-01-10T13:10:34.252Z,74.55
2023-01-10T13:13:07.022Z,74.51
2023-01-10T13:15:40.249Z,74.68
2023-01-10T13:18:19.674Z,74.48
2023-01-10T13:20:48.063Z,74.65
2023-01-10T13:23:30.224Z,74.80
2023-01-10T13:26:04.740Z,75.05
2023-01-10T13:28:35.653Z,74.73
2023-01-10T13:31:07.717Z,74.65
2023-01-10T13:33:48.567Z,75.04
2023-01-10T13:36:20.871Z,74.82
2023-01-10T13:38:53.842Z,75.18
2023-01-10T13:41:41.610Z,75.38
2023-01-10T13:44:12.336Z,76.04
2023-01-10T13:46:46.182Z,76.19
2023-01-10T13:49:47.623Z,76.60
2023-01-10T13:52:34.918Z,76.63
2023-01-10T13:55:21.624Z,76.50
2023-01-10T13:57:55.892Z,76.65
2023-01-10T14:00:45.170Z,77.19
2023-01-10T14:03:45.152Z,77.12
2023-01-10T14:06:33.240Z,77.38
2023-01-10T14:09:03.656Z,77.18
2023-01-10T14:11:53.810Z,76.86
2023-01-10T14:14:29.119Z,77.10
2023-01-10T14:16:59.929Z,76.92
2023-01-10T14:19:30.932Z,76.98
2023-01-10T14:22:02.001Z,77.15
2023-01-10T14:24:35.735Z,77.08
2023-01-10T14:27:06.062Z,77.82
2023-01-10T14:29:36.049Z,78.17
2023-01-10T14:32:07.605Z,78.32
2023-01-10T14:34:38.833Z,78.59
2023-01-10T14:37:10.991Z,78.64
2023-01-10T14:39:39.871Z,78.95
2023-01-10T14:42:09.736Z,79.27
2023-01-10T14:44:45.952Z,78.94
2023-01-10T14:47:29.067Z,78.45
2023-01-10T14:49:59.453Z,78.66
2023-01-10T14:52:27.980Z,79.55
2023-01-10T14:55:03.945Z,80.20
2023-01-10T14:57:32.566Z,81.07
2023-01-10T15:00:16.781Z,81.74
2023-01-10T15:02:47.333Z,81.44
2023-01-10T15:05:19.484Z,81.63
2023-01-10T15:07:48.229Z,81.68
2023-01-10T15:10:24.297Z,81.55
2023-01-10T15:12:55.889Z,81.92
2023-01-10T15:15:31.146Z,82.44
2023-01-10T15:18:01.913Z,83.19
2023-01-10T15:20:31.077Z,83.84
2023-01-10T15:23:01.898Z,84.13
2023-01-10T15:25:33.550Z,84.74
2023-01-10T15:28:02.978Z,85.32
2023-01-10T15:30:37.916Z,85.67
2023-01-10T15:33:13.336Z,85.72
2023-01-10T15:35:43.582Z,85.42
2023-01-10T15:38:16.262Z,85.41
2023-01-10T15:40:45.482Z,85.04
2023-01-10T15:43:24.490Z,84.77
2023-01-10T15:45:55.931Z,84.61
2023-01-10T15:48:30.441Z,84.17
2023-01-10T15:51:03.656Z,84.03
2023-01-10T15:53:54.973Z,83.81
2023-01-10T15:56:27.350Z,83.65
2023-01-10T15:58:56.669Z,83.55
2023-01-10T16:01:28.776Z,83.09
2023-01-10T16:03:59.555Z,82.25
2023-01-10T16:06:31.063Z,81.86
2023-01-10T16:09:01.039Z,81.87
2023-01-10T16:11:53.473Z,81.37
2023-01-10T16:14:22.028Z,81.09
2023-01-10T16:16:52.024Z,81.23
2023-01-10T16:19:20.387Z,81.01
2023-01-10T16:21:57.700Z,80.42
2023-01-10T16:24:27.973Z,80.52
2023-01-10T16:26:58.035Z,80.18
2023-01-10T16:29:27.509Z,80.58
2023-01-10T16:31:57.158Z,80.63
2023-01-10T16:34:25.989Z,80.17
2023-01-10T16:36:54.359Z,79.76
2023-01-10T16:39:24.375Z,79.85
2023-01-10T16:42:10.085Z,80.02
2023-01-10T16:44:38.320Z,79.76
2023-01-10T16:47:08.915Z,79.70
2023-01-10T16:49:37.142Z,79.20
2023-01-10T16:52:07.830Z,78.85
2023-01-10T16:54:37.942Z,78.72
2023-01-10T16:57:07.760Z,78.72
2023-01-10T16:59:36.040Z,77.96
2023-01-10T17:02:10.253Z,77.66
2023-01-10T17:04:40.248Z,78.17
2023-01-10T17:07:08.892Z,78.51
2023-01-10T17:09:37.369Z,78.45
2023-01-10T17:12:13.404Z,78.03
2023-01-10T17:14:41.722Z,77.07
2023-01-10T17:17:12.030Z,77.00
2023-01-10T17:19:42.802Z,77.16
2023-01-10T17:22:11.105Z,76.68
2023-01-10T17:24:39.370Z,76.84
2023-01-10T17:27:08.750Z,76.53
2023-01-10T17:29:37.186Z,76.85
2023-01-10T17:32:08.475Z,77.18
2023-01-10T17:34:38.364Z,77.53
2023-01-10T17:37:09.329Z,77.53
2023-01-10T17:39:38.215Z,77.58
2023-01-10T17:42:08.552Z,77.31
2023-01-10T17:44:36.986Z,77.76
2023-01-10T17:47:06.977Z,78.00
2023-01-10T17:49:36.393Z,78.08
2023-01-10T17:52:07.501Z,78.26
2023-01-10T17:54:37.221Z,78.06
2023-01-10T17:57:07.553Z,77.50
2023-01-10T17:59:36.668Z,77.31
2023-01-10T18:02:06.735Z,77.43
2023-01-10T18:04:35.511Z,76.95
2023-01-10T18:07:03.817Z,76.43
2023-01-10T18:09:32.111Z,75.58
2023-01-10T18:12:01.844Z,75.43
2023-01-10T18:14:39.054Z,75.74
2023-01-10T18:17:11.078Z,75.36
2023-01-10T18:19:40.030Z,75.43
2023-01-10T18:22:23.264Z,75.43
2023-01-10T18:24:53.658Z,75.20
2023-01-10T18:27:23.953Z,75.02
2023-01-10T18:29:53.414Z,75.14
2023-01-10T18:32:23.564Z,74.92
2023-01-10T18:34:52.089Z,75.01
2023-01-10T18:37:20.579Z,75.21
2023-01-10T18:39:49.578Z,75.13
2023-01-10T18:42:17.946Z,74.54
2023-01-10T18:44:47.621Z,74.01
2023-01-10T18:47:15.928Z,73.91
2023-01-10T18:49:44.250Z,73.99
2023-01-10T18:52:12.547Z,74.28
2023-01-10T18:54:40.854Z,74.68
2023-01-10T18:57:09.649Z,74.53
2023-01-10T18:59:39.665Z,74.24
2023-01-10T19:02:12.695Z,73.86
2023-01-10T19:04:41.189Z,73.83
2023-01-10T19:07:10.045Z,73.64
2023-01-10T19:09:38.469Z,73.95
2023-01-10T19:12:08.289Z,74.25
2023-01-10T19:14:36.646Z,73.94
2023-01-10T19:17:05.735Z,73.62
2023-01-10T19:19:35.994Z,72.96
2023-01-10T19:22:04.400Z,72.96
2023-01-10T19:24:37.648Z,72.96
2023-01-10T19:27:07.379Z,72.91
2023-01-10T19:29:36.853Z,72.82
2023-01-10T19:32:05.807Z,72.89
2023-01-10T19:34:35.870Z,72.92
2023-01-10T19:37:04.205Z,73.01
2023-01-10T19:39:33.827Z,72.67
2023-01-10T19:42:02.092Z,72.80
2023-01-10T19:44:30.364Z,72.77
2023-01-10T19:46:58.842Z,72.93
2023-01-10T19:49:29.236Z,73.24
2023-01-10T19:51:58.845Z,73.28
2023-01-10T19:54:27.457Z,73.29
2023-01-10T19:56:56.609Z,73.86
2023-01-10T19:59:25.087Z,74.70
2023-01-10T20:01:53.451Z,75.69
2023-01-10T20:04:22.067Z,75.86
2023-01-10T20:06:50.614Z,76.53
2023-01-10T20:09:20.714Z,77.01
2023-01-10T20:11:49.044Z,76.74
2023-01-10T20:14:18.882Z,76.25
2023-01-10T20:16:47.660Z,76.02
2023-01-10T20:19:17.475Z,75.82
2023-01-10T20:21:46.014Z,75.53
2023-01-10T20:24:16.596Z,75.25
2023-01-10T20:26:47.202Z,75.14
2023-01-10T20:29:16.240Z,74.65
2023-01-10T20:31:47.313Z,74.69
2023-01-10T20:34:15.839Z,74.43
2023-01-10T20:36:44.145Z,74.54
2023-01-10T20:39:12.448Z,74.40
2023-01-10T20:41:40.715Z,74.56
2023-01-10T20:44:10.879Z,74.18
2023-01-10T20:46:39.338Z,74.43
2023-01-10T20:49:08.592Z,73.98
2023-01-10T20:51:37.581Z,73.60
2023-01-10T20:54:08.894Z,72.97
2023-01-10T20:56:38.892Z,72.97
2023-01-10T20:59:08.584Z,72.92
2023-01-10T21:01:38.366Z,72.77
2023-01-10T21:04:09.240Z,72.63
2023-01-10T21:06:37.675Z,73.16
2023-01-10T21:09:07.854Z,72.98
2023-01-10T21:11:47.835Z,72.97
2023-01-10T21:14:24.415Z,72.32
2023-01-10T21:16:54.067Z,72.00
2023-01-10T21:19:22.410Z,72.10
2023-01-10T21:21:50.849Z,72.16
2023-01-10T21:24:22.874Z,71.61
2023-01-10T21:26:51.271Z,71.58
2023-01-10T21:29:19.804Z,71.63
2023-01-10T21:31:48.148Z,71.68
2023-01-10T21:34:17.880Z,71.59
2023-01-10T21:36:46.189Z,71.69
2023-01-10T21:39:14.480Z,71.70
2023-01-10T21:42:00.201Z,71.73
2023-01-10T21:44:28.573Z,71.39
2023-01-10T21:46:56.928Z,71.33
2023-01-10T21:49:26.597Z,71.80
2023-01-10T21:51:55.032Z,72.00
2023-01-10T21:54:23.511Z,72.04
2023-01-10T21:56:51.780Z,72.45
2023-01-10T21:59:20.049Z,72.66
2023-01-10T22:01:48.378Z,72.77
2023-01-10T22:04:17.552Z,72.58
2023-01-10T22:06:47.589Z,72.40
2023-01-10T22:09:15.905Z,72.56
2023-01-10T22:11:44.151Z,71.90
2023-01-10T22:14:13.151Z,71.70
2023-01-10T22:16:41.544Z,71.52
2023-01-10T22:19:10.151Z,71.40
2023-01-10T22:21:38.396Z,71.35
2023-01-10T22:24:09.108Z,71.45
2023-01-10T22:26:37.320Z,71.06
2023-01-10T22:29:06.702Z,70.98
2023-01-10T22:31:35.023Z,71.13
2023-01-10T22:34:03.294Z,71.08
2023-01-10T22:36:31.915Z,70.67
2023-01-10T22:39:00.149Z,70.78
2023-01-10T22:41:29.956Z,70.55
2023-01-10T22:43:58.544Z,70.87
2023-01-10T22:46:27.371Z,70.45
2023-01-10T22:48:55.607Z,70.54
2023-01-10T22:51:25.192Z,70.42
2023-01-10T22:53:55.235Z,70.37
2023-01-10T22:56:25.404Z,70.30
2023-01-10T22:58:55.206Z,70.39
2023-01-10T23:01:25.189Z,70.44
2023-01-10T23:03:53.856Z,70.68
2023-01-10T23:06:22.434Z,70.46
2023-01-10T23:08:51.466Z,70.19
2023-01-10T23:11:22.013Z,70.00
2023-01-10T23:13:50.440Z,69.98
2023-01-10T23:16:22.370Z,70.01
2023-01-10T23:18:50.843Z,69.89
2023-01-10T23:21:19.635Z,70.02
2023-01-10T23:23:47.910Z,70.04
2023-01-10T23:26:16.398Z,69.66
2023-01-10T23:28:47.040Z,69.79
2023-01-10T23:31:17.556Z,69.87
2023-01-10T23:33:47.482Z,69.94
2023-01-10T23:36:16.203Z,69.98
2023-01-10T23:38:44.847Z,70.18
2023-01-10T23:41:13.144Z,70.76
2023-01-10T23:43:42.595Z,71.67
2023-01-10T23:46:11.127Z,72.61
2023-01-10T23:48:40.373Z,73.02
2023-01-10T23:51:11.449Z,73.49
2023-01-10T23:53:39.727Z,73.58
2023-01-10T23:56:09.425Z,73.83
2023-01-10T23:58:37.911Z,73.50
